sensor_id;sensor_type;location;lat;lon;timestamp;pressure;altitude;pressure_sealevel;temperature;humidity
71966;BME280;59836;52.132;5.442;2024-02-14T00:00:33;101302.00;;;7.60;100.00
71966;BME280;59836;52.132;5.442;2024-02-14T00:03:00;101308.19;;;7.61;100.00
71966;BME280;59836;52.132;5.442;2024-02-14T00:05:28;101297.41;;;7.61;100.00
71966;BME280;59836;52.132;5.442;2024-02-14T00:07:55;101297.41;;;7.61;100.00
71966;BME280;59836;52.132;5.442;2024-02-14T00:10:21;101291.78;;;7.62;100.00
71966;BME280;59836;52.132;5.442;2024-02-14T00:12:49;101298.25;;;7.61;100.00
71966;BME280;59836;52.132;5.442;2024-02-14T00:15:15;101299.03;;;7.62;100.00
71966;BME280;59836;52.132;5.442;2024-02-14T00:17:42;101291.78;;;7.62;100.00
71966;BME280;59836;52.132;5.442;2024-02-14T00:20:10;101301.53;;;7.63;100.00
71966;BME280;59836;52.132;5.442;2024-02-14T00:22:39;101295.06;;;7.64;100.00
71966;BME280;59836;52.132;5.442;2024-02-14T00:25:05;101294.00;;;7.65;100.00
71966;BME280;59836;52.132;5.442;2024-02-14T00:27:33;101296.47;;;7.67;100.00
71966;BME280;59836;52.132;5.442;2024-02-14T00:29:59;101298.94;;;7.68;100.00
71966;BME280;59836;52.132;5.442;2024-02-14T00:32:26;101287.06;;;7.70;100.00
71966;BME280;59836;52.132;5.442;2024-02-14T00:34:53;101283.31;;;7.71;100.00
71966;BME280;59836;52.132;5.442;2024-02-14T00:37:20;101276.03;;;7.71;100.00
71966;BME280;59836;52.132;5.442;2024-02-14T00:39:46;101280.13;;;7.74;100.00
71966;BME280;59836;52.132;5.442;2024-02-14T00:42:15;101281.78;;;7.75;100.00
71966;BME280;59836;52.132;5.442;2024-02-14T00:44:42;101265.56;;;7.75;100.00
71966;BME280;59836;52.132;5.442;2024-02-14T00:47:08;101267.22;;;7.76;100.00
71966;BME280;59836;52.132;5.442;2024-02-14T00:49:35;101263.47;;;7.77;100.00
71966;BME280;59836;52.132;5.442;2024-02-14T00:52:02;101273.78;;;7.80;100.00
71966;BME280;59836;52.132;5.442;2024-02-14T00:54:29;101262.97;;;7.80;100.00
71966;BME280;59836;52.132;5.442;2024-02-14T00:56:55;101262.72;;;7.81;100.00
71966;BME280;59836;52.132;5.442;2024-02-14T00:59:22;101267.91;;;7.83;100.00
71966;BME280;59836;52.132;5.442;2024-02-14T01:01:49;101259.53;;;7.85;100.00
71966;BME280;59836;52.132;5.442;2024-02-14T01:04:16;101264.72;;;7.86;100.00
71966;BME280;59836;52.132;5.442;2024-02-14T01:06:43;101264.72;;;7.86;100.00
71966;BME280;59836;52.132;5.442;2024-02-14T01:09:10;101266.94;;;7.89;100.00
71966;BME280;59836;52.132;5.442;2024-02-14T01:11:37;101257.78;;;7.90;100.00
71966;BME280;59836;52.132;5.442;2024-02-14T01:14:04;101258.34;;;7.92;100.00
71966;BME280;59836;52.132;5.442;2024-02-14T01:16:31;101269.72;;;7.94;100.00
71966;BME280;59836;52.132;5.442;2024-02-14T01:18:58;101258.94;;;7.94;100.00
71966;BME280;59836;52.132;5.442;2024-02-14T01:21:24;101260.53;;;7.95;100.00
71966;BME280;59836;52.132;5.442;2024-02-14T01:23:51;101263.03;;;7.97;100.00
71966;BME280;59836;52.132;5.442;2024-02-14T01:26:18;101248.44;;;7.98;100.00
71966;BME280;59836;52.132;5.442;2024-02-14T01:28:47;101255.50;;;7.99;100.00
71966;BME280;59836;52.132;5.442;2024-02-14T01:31:13;101263.34;;;8.01;100.00
71966;BME280;59836;52.132;5.442;2024-02-14T01:33:40;101250.41;;;8.03;100.00
71966;BME280;59836;52.132;5.442;2024-02-14T01:36:07;101256.66;;;8.03;100.00
71966;BME280;59836;52.132;5.442;2024-02-14T01:38:33;101258.03;;;8.06;100.00
71966;BME280;59836;52.132;5.442;2024-02-14T01:41:05;101256.16;;;8.06;100.00
71966;BME280;59836;52.132;5.442;2024-02-14T01:43:31;101250.75;;;8.06;100.00
71966;BME280;59836;52.132;5.442;2024-02-14T01:46:05;101249.94;;;8.06;100.00
71966;BME280;59836;52.132;5.442;2024-02-14T01:48:36;101250.50;;;8.08;100.00
71966;BME280;59836;52.132;5.442;2024-02-14T01:51:08;101251.09;;;8.10;100.00
71966;BME280;59836;52.132;5.442;2024-02-14T01:53:36;101250.03;;;8.11;100.00
71966;BME280;59836;52.132;5.442;2024-02-14T01:56:04;101244.38;;;8.12;100.00
71966;BME280;59836;52.132;5.442;2024-02-14T01:58:33;101251.44;;;8.13;100.00
71966;BME280;59836;52.132;5.442;2024-02-14T02:01:00;101252.25;;;8.14;100.00
71966;BME280;59836;52.132;5.442;2024-02-14T02:03:27;101250.13;;;8.16;100.00
71966;BME280;59836;52.132;5.442;2024-02-14T02:05:55;101250.13;;;8.16;100.00
71966;BME280;59836;52.132;5.442;2024-02-14T02:08:21;101254.47;;;8.17;100.00
71966;BME280;59836;52.132;5.442;2024-02-14T02:10:48;101255.88;;;8.20;100.00
71966;BME280;59836;52.132;5.442;2024-02-14T02:13:15;101259.38;;;8.20;100.00
71966;BME280;59836;52.132;5.442;2024-02-14T02:15:42;101258.31;;;8.21;100.00
71966;BME280;59836;52.132;5.442;2024-02-14T02:18:12;101259.94;;;8.22;100.00
71966;BME280;59836;52.132;5.442;2024-02-14T02:20:39;101253.47;;;8.23;100.00
71966;BME280;59836;52.132;5.442;2024-02-14T02:23:11;101264.88;;;8.25;100.00
71966;BME280;59836;52.132;5.442;2024-02-14T02:25:42;101259.47;;;8.25;100.00
71966;BME280;59836;52.132;5.442;2024-02-14T02:28:08;101251.13;;;8.27;100.00
71966;BME280;59836;52.132;5.442;2024-02-14T02:30:36;101260.63;;;8.30;100.00
71966;BME280;59836;52.132;5.442;2024-02-14T02:33:03;101271.44;;;8.30;100.00
71966;BME280;59836;52.132;5.442;2024-02-14T02:35:30;101262.03;;;8.32;100.00
71966;BME280;59836;52.132;5.442;2024-02-14T02:37:57;101260.13;;;8.33;100.00
71966;BME280;59836;52.132;5.442;2024-02-14T02:40:24;101267.19;;;8.34;100.00
71966;BME280;59836;52.132;5.442;2024-02-14T02:42:52;101273.16;;;8.36;100.00
71966;BME280;59836;52.132;5.442;2024-02-14T02:45:19;101270.44;;;8.36;100.00
71966;BME280;59836;52.132;5.442;2024-02-14T02:47:45;101269.16;;;8.38;100.00
71966;BME280;59836;52.132;5.442;2024-02-14T02:50:13;101270.81;;;8.39;100.00
71966;BME280;59836;52.132;5.442;2024-02-14T02:52:40;101268.09;;;8.39;100.00
71966;BME280;59836;52.132;5.442;2024-02-14T02:55:08;101263.28;;;8.41;100.00
71966;BME280;59836;52.132;5.442;2024-02-14T02:57:34;101269.47;;;8.42;100.00
71966;BME280;59836;52.132;5.442;2024-02-14T03:00:07;101258.19;;;8.45;100.00
71966;BME280;59836;52.132;5.442;2024-02-14T03:02:35;101262.78;;;8.45;100.00
71966;BME280;59836;52.132;5.442;2024-02-14T03:05:04;101264.41;;;8.46;100.00
71966;BME280;59836;52.132;5.442;2024-02-14T03:07:37;101270.63;;;8.46;100.00
71966;BME280;59836;52.132;5.442;2024-02-14T03:10:04;101272.25;;;8.47;100.00
71966;BME280;59836;52.132;5.442;2024-02-14T03:12:31;101272.25;;;8.47;100.00
71966;BME280;59836;52.132;5.442;2024-02-14T03:15:03;101274.75;;;8.49;100.00
71966;BME280;59836;52.132;5.442;2024-02-14T03:17:31;101275.56;;;8.49;100.00
71966;BME280;59836;52.132;5.442;2024-02-14T03:19:58;101269.91;;;8.51;100.00
71966;BME280;59836;52.132;5.442;2024-02-14T03:22:25;101269.09;;;8.50;100.00
71966;BME280;59836;52.132;5.442;2024-02-14T03:24:51;101283.44;;;8.51;100.00
71966;BME280;59836;52.132;5.442;2024-02-14T03:27:18;101281.28;;;8.53;100.00
71966;BME280;59836;52.132;5.442;2024-02-14T03:29:45;101276.72;;;8.53;100.00
71966;BME280;59836;52.132;5.442;2024-02-14T03:32:14;101282.13;;;8.53;100.00
71966;BME280;59836;52.132;5.442;2024-02-14T03:34:41;101278.38;;;8.54;100.00
71966;BME280;59836;52.132;5.442;2024-02-14T03:37:07;101283.28;;;8.57;100.00
71966;BME280;59836;52.132;5.442;2024-02-14T03:39:34;101290.34;;;8.59;100.00
71966;BME280;59836;52.132;5.442;2024-02-14T03:42:02;101294.66;;;8.60;100.00
71966;BME280;59836;52.132;5.442;2024-02-14T03:44:33;101289.84;;;8.62;100.00
71966;BME280;59836;52.132;5.442;2024-02-14T03:47:00;101304.75;;;8.64;100.00
71966;BME280;59836;52.132;5.442;2024-02-14T03:49:27;101297.47;;;8.65;100.00
71966;BME280;59836;52.132;5.442;2024-02-14T03:51:53;101291.31;;;8.69;100.00
71966;BME280;59836;52.132;5.442;2024-02-14T03:54:21;101290.50;;;8.69;100.00
71966;BME280;59836;52.132;5.442;2024-02-14T03:56:47;101285.66;;;8.71;100.00
71966;BME280;59836;52.132;5.442;2024-02-14T03:59:14;101295.41;;;8.72;100.00
71966;BME280;59836;52.132;5.442;2024-02-14T04:01:44;101285.41;;;8.73;100.00
71966;BME280;59836;52.132;5.442;2024-02-14T04:04:11;101297.06;;;8.73;100.00
71966;BME280;59836;52.132;5.442;2024-02-14T04:06:38;101299.50;;;8.75;100.00
71966;BME280;59836;52.132;5.442;2024-02-14T04:09:04;101307.63;;;8.75;100.00
71966;BME280;59836;52.132;5.442;2024-02-14T04:11:31;101300.34;;;8.75;100.00
71966;BME280;59836;52.132;5.442;2024-02-14T04:13:58;101304.69;;;8.76;100.00
71966;BME280;59836;52.132;5.442;2024-02-14T04:16:25;101304.19;;;8.79;100.00
71966;BME280;59836;52.132;5.442;2024-02-14T04:18:52;101304.75;;;8.81;100.00
71966;BME280;59836;52.132;5.442;2024-02-14T04:21:20;101317.78;;;8.84;100.00
71966;BME280;59836;52.132;5.442;2024-02-14T04:23:46;101314.03;;;8.85;100.00
71966;BME280;59836;52.132;5.442;2024-02-14T04:26:20;101316.25;;;8.89;100.00
71966;BME280;59836;52.132;5.442;2024-02-14T04:28:47;101324.59;;;8.87;100.00
71966;BME280;59836;52.132;5.442;2024-02-14T04:31:13;101325.41;;;8.88;100.00
71966;BME280;59836;52.132;5.442;2024-02-14T04:33:40;101328.69;;;8.90;100.00
71966;BME280;59836;52.132;5.442;2024-02-14T04:36:06;101331.97;;;8.92;100.00
71966;BME280;59836;52.132;5.442;2024-02-14T04:38:33;101331.97;;;8.92;100.00
71966;BME280;59836;52.132;5.442;2024-02-14T04:41:00;101331.97;;;8.92;100.00
71966;BME280;59836;52.132;5.442;2024-02-14T04:43:26;101337.38;;;8.92;100.00
71966;BME280;59836;52.132;5.442;2024-02-14T04:45:53;101338.19;;;8.92;100.00
71966;BME280;59836;52.132;5.442;2024-02-14T04:48:19;101336.06;;;8.94;100.00
71966;BME280;59836;52.132;5.442;2024-02-14T04:50:46;101334.75;;;8.97;100.00
71966;BME280;59836;52.132;5.442;2024-02-14T04:53:13;101331.47;;;8.95;100.00
71966;BME280;59836;52.132;5.442;2024-02-14T04:55:39;101333.94;;;8.96;100.00
71966;BME280;59836;52.132;5.442;2024-02-14T04:58:06;101336.41;;;8.98;100.00
71966;BME280;59836;52.132;5.442;2024-02-14T05:00:33;101346.69;;;9.01;100.00
71966;BME280;59836;52.132;5.442;2024-02-14T05:02:59;101356.47;;;9.02;100.00
71966;BME280;59836;52.132;5.442;2024-02-14T05:05:26;101346.69;;;9.01;100.00
71966;BME280;59836;52.132;5.442;2024-02-14T05:07:52;101348.34;;;9.02;100.00
71966;BME280;59836;52.132;5.442;2024-02-14T05:10:20;101347.28;;;9.03;100.00
71966;BME280;59836;52.132;5.442;2024-02-14T05:12:46;101350.56;;;9.05;100.00
71966;BME280;59836;52.132;5.442;2024-02-14T05:15:15;101349.47;;;9.06;100.00
71966;BME280;59836;52.132;5.442;2024-02-14T05:17:42;101359.50;;;9.06;100.00
71966;BME280;59836;52.132;5.442;2024-02-14T05:20:11;101361.16;;;9.07;100.00
71966;BME280;59836;52.132;5.442;2024-02-14T05:22:38;101367.38;;;9.07;100.00
71966;BME280;59836;52.132;5.442;2024-02-14T05:25:05;101371.97;;;9.07;100.00
71966;BME280;59836;52.132;5.442;2024-02-14T05:27:36;101370.06;;;9.07;100.00
71966;BME280;59836;52.132;5.442;2024-02-14T05:30:04;101368.44;;;9.06;100.00
71966;BME280;59836;52.132;5.442;2024-02-14T05:32:32;101371.72;;;9.08;100.00
71966;BME280;59836;52.132;5.442;2024-02-14T05:34:59;101376.06;;;9.09;100.00
71966;BME280;59836;52.132;5.442;2024-02-14T05:37:26;101370.91;;;9.08;100.00
71966;BME280;59836;52.132;5.442;2024-02-14T05:39:55;101371.47;;;9.10;100.00
71966;BME280;59836;52.132;5.442;2024-02-14T05:42:22;101381.22;;;9.11;100.00
71966;BME280;59836;52.132;5.442;2024-02-14T05:44:50;101378.53;;;9.11;100.00
71966;BME280;59836;52.132;5.442;2024-02-14T05:47:18;101378.53;;;9.11;100.00
71966;BME280;59836;52.132;5.442;2024-02-14T05:49:45;101380.41;;;9.10;100.00
71966;BME280;59836;52.132;5.442;2024-02-14T05:52:12;101372.84;;;9.12;100.00
71966;BME280;59836;52.132;5.442;2024-02-14T05:54:38;101378.25;;;9.12;100.00
71966;BME280;59836;52.132;5.442;2024-02-14T05:57:05;101377.47;;;9.12;100.00
71966;BME280;59836;52.132;5.442;2024-02-14T05:59:31;101382.03;;;9.11;100.00
71966;BME280;59836;52.132;5.442;2024-02-14T06:01:59;101383.69;;;9.12;100.00
71966;BME280;59836;52.132;5.442;2024-02-14T06:04:25;101382.63;;;9.13;100.00
71966;BME280;59836;52.132;5.442;2024-02-14T06:06:52;101382.63;;;9.13;100.00
71966;BME280;59836;52.132;5.442;2024-02-14T06:09:18;101390.72;;;9.13;100.00
71966;BME280;59836;52.132;5.442;2024-02-14T06:11:45;101384.50;;;9.13;100.00
71966;BME280;59836;52.132;5.442;2024-02-14T06:14:11;101393.44;;;9.13;100.00
71966;BME280;59836;52.132;5.442;2024-02-14T06:16:39;101392.38;;;9.14;100.00
71966;BME280;59836;52.132;5.442;2024-02-14T06:19:05;101401.56;;;9.13;100.00
71966;BME280;59836;52.132;5.442;2024-02-14T06:21:32;101395.06;;;9.14;100.00
71966;BME280;59836;52.132;5.442;2024-02-14T06:24:00;101404.03;;;9.15;100.00
71966;BME280;59836;52.132;5.442;2024-02-14T06:26:27;101404.59;;;9.17;100.00
71966;BME280;59836;52.132;5.442;2024-02-14T06:28:54;101411.66;;;9.18;100.00
71966;BME280;59836;52.132;5.442;2024-02-14T06:31:22;101410.81;;;9.18;100.00
71966;BME280;59836;52.132;5.442;2024-02-14T06:33:48;101419.50;;;9.20;100.00
71966;BME280;59836;52.132;5.442;2024-02-14T06:36:15;101421.16;;;9.21;100.00
71966;BME280;59836;52.132;5.442;2024-02-14T06:38:42;101425.75;;;9.20;100.00
71966;BME280;59836;52.132;5.442;2024-02-14T06:41:09;101427.16;;;9.23;100.00
71966;BME280;59836;52.132;5.442;2024-02-14T06:43:36;101428.22;;;9.22;100.00
71966;BME280;59836;52.132;5.442;2024-02-14T06:46:05;101430.91;;;9.22;100.00
71966;BME280;59836;52.132;5.442;2024-02-14T06:48:32;101442.81;;;9.21;100.00
71966;BME280;59836;52.132;5.442;2024-02-14T06:50:59;101431.97;;;9.21;100.00
71966;BME280;59836;52.132;5.442;2024-02-14T06:53:26;101428.22;;;9.22;100.00
71966;BME280;59836;52.132;5.442;2024-02-14T06:55:52;101429.84;;;9.23;100.00
71966;BME280;59836;52.132;5.442;2024-02-14T06:58:19;101432.56;;;9.23;100.00
71966;BME280;59836;52.132;5.442;2024-02-14T07:00:45;101429.84;;;9.23;100.00
71966;BME280;59836;52.132;5.442;2024-02-14T07:03:12;101431.50;;;9.24;100.00
71966;BME280;59836;52.132;5.442;2024-02-14T07:05:39;101433.97;;;9.25;100.00
71966;BME280;59836;52.132;5.442;2024-02-14T07:08:06;101436.41;;;9.27;100.00
71966;BME280;59836;52.132;5.442;2024-02-14T07:10:32;101439.13;;;9.27;100.00
71966;BME280;59836;52.132;5.442;2024-02-14T07:12:59;101443.47;;;9.28;100.00
71966;BME280;59836;52.132;5.442;2024-02-14T07:15:26;101447.25;;;9.27;100.00
71966;BME280;59836;52.132;5.442;2024-02-14T07:17:55;101447.81;;;9.29;100.00
71966;BME280;59836;52.132;5.442;2024-02-14T07:20:24;101454.06;;;9.29;100.00
71966;BME280;59836;52.132;5.442;2024-02-14T07:22:54;101451.09;;;9.31;100.00
71966;BME280;59836;52.132;5.442;2024-02-14T07:25:23;101455.44;;;9.32;100.00
71966;BME280;59836;52.132;5.442;2024-02-14T07:27:49;101454.16;;;9.35;100.00
71966;BME280;59836;52.132;5.442;2024-02-14T07:30:16;101456.03;;;9.34;100.00
71966;BME280;59836;52.132;5.442;2024-02-14T07:32:46;101454.94;;;9.35;100.00
71966;BME280;59836;52.132;5.442;2024-02-14T07:35:13;101451.19;;;9.36;100.00
71966;BME280;59836;52.132;5.442;2024-02-14T07:37:40;101455.53;;;9.37;100.00
71966;BME280;59836;52.132;5.442;2024-02-14T07:40:09;101452.81;;;9.37;100.00
71966;BME280;59836;52.132;5.442;2024-02-14T07:42:36;101460.72;;;9.39;100.00
71966;BME280;59836;52.132;5.442;2024-02-14T07:45:03;101450.13;;;9.37;100.00
71966;BME280;59836;52.132;5.442;2024-02-14T07:47:30;101454.47;;;9.38;100.00
71966;BME280;59836;52.132;5.442;2024-02-14T07:49:57;101454.47;;;9.38;100.00
71966;BME280;59836;52.132;5.442;2024-02-14T07:52:25;101463.16;;;9.40;100.00
71966;BME280;59836;52.132;5.442;2024-02-14T07:54:53;101461.28;;;9.41;100.00
71966;BME280;59836;52.132;5.442;2024-02-14T07:57:22;101459.38;;;9.41;100.00
71966;BME280;59836;52.132;5.442;2024-02-14T07:59:50;101459.97;;;9.43;100.00
71966;BME280;59836;52.132;5.442;2024-02-14T08:02:18;101467.28;;;9.43;100.00
71966;BME280;59836;52.132;5.442;2024-02-14T08:04:45;101461.03;;;9.42;100.00
71966;BME280;59836;52.132;5.442;2024-02-14T08:07:12;101465.16;;;9.45;100.00
71966;BME280;59836;52.132;5.442;2024-02-14T08:09:38;101469.72;;;9.44;100.00
71966;BME280;59836;52.132;5.442;2024-02-14T08:12:05;101476.78;;;9.45;100.00
71966;BME280;59836;52.132;5.442;2024-02-14T08:14:32;101472.19;;;9.46;100.00
71966;BME280;59836;52.132;5.442;2024-02-14T08:16:59;101476.56;;;9.47;100.00
71966;BME280;59836;52.132;5.442;2024-02-14T08:19:26;101482.78;;;9.48;100.00
71966;BME280;59836;52.132;5.442;2024-02-14T08:21:53;101477.13;;;9.49;100.00
71966;BME280;59836;52.132;5.442;2024-02-14T08:24:25;101479.00;;;9.49;100.00
71966;BME280;59836;52.132;5.442;2024-02-14T08:26:52;101475.22;;;9.50;100.00
71966;BME280;59836;52.132;5.442;2024-02-14T08:29:19;101476.88;;;9.51;100.00
71966;BME280;59836;52.132;5.442;2024-02-14T08:31:46;101473.09;;;9.52;100.00
71966;BME280;59836;52.132;5.442;2024-02-14T08:34:13;101477.44;;;9.53;100.00
71966;BME280;59836;52.132;5.442;2024-02-14T08:36:40;101482.03;;;9.52;100.00
71966;BME280;59836;52.132;5.442;2024-02-14T08:39:08;101480.72;;;9.55;100.00
71966;BME280;59836;52.132;5.442;2024-02-14T08:41:39;101493.19;;;9.56;100.00
71966;BME280;59836;52.132;5.442;2024-02-14T08:44:10;101485.88;;;9.56;100.00
71966;BME280;59836;52.132;5.442;2024-02-14T08:46:36;101487.78;;;9.56;100.00
71966;BME280;59836;52.132;5.442;2024-02-14T08:49:03;101491.88;;;9.58;100.00
71966;BME280;59836;52.132;5.442;2024-02-14T08:51:38;101491.88;;;9.58;100.00
71966;BME280;59836;52.132;5.442;2024-02-14T08:54:04;101499.75;;;9.60;100.00
71966;BME280;59836;52.132;5.442;2024-02-14T08:56:32;101495.97;;;9.61;100.00
71966;BME280;59836;52.132;5.442;2024-02-14T08:59:01;101492.22;;;9.62;100.00
71966;BME280;59836;52.132;5.442;2024-02-14T09:01:29;101495.50;;;9.64;100.00
71966;BME280;59836;52.132;5.442;2024-02-14T09:03:56;101495.22;;;9.66;100.00
71966;BME280;59836;52.132;5.442;2024-02-14T09:06:23;101499.56;;;9.67;100.00
71966;BME280;59836;52.132;5.442;2024-02-14T09:08:50;101499.56;;;9.67;100.00
71966;BME280;59836;52.132;5.442;2024-02-14T09:11:17;101495.00;;;9.67;100.00
71966;BME280;59836;52.132;5.442;2024-02-14T09:13:44;101500.41;;;9.67;100.00
71966;BME280;59836;52.132;5.442;2024-02-14T09:16:13;101504.75;;;9.68;100.00
71966;BME280;59836;52.132;5.442;2024-02-14T09:18:41;101502.84;;;9.69;100.00
71966;BME280;59836;52.132;5.442;2024-02-14T09:21:08;101510.97;;;9.69;100.00
71966;BME280;59836;52.132;5.442;2024-02-14T09:23:35;101513.47;;;9.70;100.00
71966;BME280;59836;52.132;5.442;2024-02-14T09:26:06;101508.28;;;9.69;100.00
71966;BME280;59836;52.132;5.442;2024-02-14T09:28:33;101511.81;;;9.69;100.00
71966;BME280;59836;52.132;5.442;2024-02-14T09:31:01;101518.88;;;9.70;100.00
71966;BME280;59836;52.132;5.442;2024-02-14T09:33:30;101516.16;;;9.70;100.00
71966;BME280;59836;52.132;5.442;2024-02-14T09:35:57;101524.88;;;9.72;100.00
71966;BME280;59836;52.132;5.442;2024-02-14T09:38:24;101523.81;;;9.73;100.00
71966;BME280;59836;52.132;5.442;2024-02-14T09:40:53;101522.72;;;9.74;100.00
71966;BME280;59836;52.132;5.442;2024-02-14T09:43:39;101522.72;;;9.74;100.00
71966;BME280;59836;52.132;5.442;2024-02-14T09:46:12;101517.88;;;9.77;100.00
71966;BME280;59836;52.132;5.442;2024-02-14T09:48:44;101518.97;;;9.75;100.00
71966;BME280;59836;52.132;5.442;2024-02-14T09:51:12;101511.63;;;9.76;100.00
71966;BME280;59836;52.132;5.442;2024-02-14T09:53:40;101521.41;;;9.77;100.00
71966;BME280;59836;52.132;5.442;2024-02-14T09:56:09;101519.53;;;9.78;100.00
71966;BME280;59836;52.132;5.442;2024-02-14T09:58:36;101522.25;;;9.78;100.00
71966;BME280;59836;52.132;5.442;2024-02-14T10:01:04;101527.66;;;9.78;100.00
71966;BME280;59836;52.132;5.442;2024-02-14T10:03:31;101522.25;;;9.78;100.00
71966;BME280;59836;52.132;5.442;2024-02-14T10:05:57;101522.25;;;9.78;100.00
71966;BME280;59836;52.132;5.442;2024-02-14T10:08:24;101528.47;;;9.78;100.00
71966;BME280;59836;52.132;5.442;2024-02-14T10:10:56;101532.00;;;9.79;100.00
71966;BME280;59836;52.132;5.442;2024-02-14T10:13:26;101533.66;;;9.80;100.00
71966;BME280;59836;52.132;5.442;2024-02-14T10:15:53;101529.63;;;9.82;100.00
71966;BME280;59836;52.132;5.442;2024-02-14T10:18:21;101532.59;;;9.81;100.00
71966;BME280;59836;52.132;5.442;2024-02-14T10:20:53;101533.16;;;9.83;100.00
71966;BME280;59836;52.132;5.442;2024-02-14T10:23:20;101534.81;;;9.84;100.00
71966;BME280;59836;52.132;5.442;2024-02-14T10:25:48;101533.72;;;9.85;100.00
71966;BME280;59836;52.132;5.442;2024-02-14T10:28:15;101536.19;;;9.86;100.00
71966;BME280;59836;52.132;5.442;2024-02-14T10:30:45;101538.66;;;9.88;100.00
71966;BME280;59836;52.132;5.442;2024-02-14T10:33:12;101539.72;;;9.87;100.00
71966;BME280;59836;52.132;5.442;2024-02-14T10:35:52;101534.88;;;9.89;100.00
71966;BME280;59836;52.132;5.442;2024-02-14T10:38:25;101549.00;;;9.91;100.00
71966;BME280;59836;52.132;5.442;2024-02-14T10:40:52;101541.44;;;9.93;100.00
71966;BME280;59836;52.132;5.442;2024-02-14T10:43:19;101546.88;;;9.93;100.00
71966;BME280;59836;52.132;5.442;2024-02-14T10:45:47;101548.50;;;9.94;100.00
71966;BME280;59836;52.132;5.442;2024-02-14T10:48:14;101552.84;;;9.95;100.00
71966;BME280;59836;52.132;5.442;2024-02-14T10:50:44;101548.81;;;9.98;100.00
71966;BME280;59836;52.132;5.442;2024-02-14T10:53:13;101548.81;;;9.98;100.00
71966;BME280;59836;52.132;5.442;2024-02-14T10:55:46;101548.59;;;9.99;100.00
71966;BME280;59836;52.132;5.442;2024-02-14T10:58:16;101550.81;;;10.02;100.00
71966;BME280;59836;52.132;5.442;2024-02-14T11:00:44;101547.03;;;10.03;100.00
71966;BME280;59836;52.132;5.442;2024-02-14T11:03:10;101547.03;;;10.03;100.00
71966;BME280;59836;52.132;5.442;2024-02-14T11:05:45;101551.38;;;10.04;100.00
71966;BME280;59836;52.132;5.442;2024-02-14T11:08:18;101550.31;;;10.06;100.00
71966;BME280;59836;52.132;5.442;2024-02-14T11:10:56;101546.53;;;10.07;100.00
71966;BME280;59836;52.132;5.442;2024-02-14T11:13:29;101546.00;;;10.10;100.00
71966;BME280;59836;52.132;5.442;2024-02-14T11:16:00;101537.88;;;10.10;100.00
71966;BME280;59836;52.132;5.442;2024-02-14T11:18:28;101543.84;;;10.12;100.00
71966;BME280;59836;52.132;5.442;2024-02-14T11:21:03;101543.63;;;10.13;100.00
71966;BME280;59836;52.132;5.442;2024-02-14T11:23:31;101542.78;;;10.13;100.00
71966;BME280;59836;52.132;5.442;2024-02-14T11:26:01;101536.28;;;10.14;100.00
71966;BME280;59836;52.132;5.442;2024-02-14T11:28:29;101534.16;;;10.16;100.00
71966;BME280;59836;52.132;5.442;2024-02-14T11:31:03;101526.59;;;10.18;100.00
71966;BME280;59836;52.132;5.442;2024-02-14T11:33:31;101526.59;;;10.18;100.00
71966;BME280;59836;52.132;5.442;2024-02-14T11:36:07;101526.38;;;10.19;100.00
71966;BME280;59836;52.132;5.442;2024-02-14T11:38:33;101531.53;;;10.21;100.00
71966;BME280;59836;52.132;5.442;2024-02-14T11:41:00;101529.88;;;10.20;100.00
71966;BME280;59836;52.132;5.442;2024-02-14T11:43:27;101526.94;;;10.22;100.00
71966;BME280;59836;52.132;5.442;2024-02-14T11:45:53;101532.94;;;10.24;100.00
71966;BME280;59836;52.132;5.442;2024-02-14T11:48:21;101526.44;;;10.25;100.00
71966;BME280;59836;52.132;5.442;2024-02-14T11:50:48;101527.50;;;10.24;100.00
71966;BME280;59836;52.132;5.442;2024-02-14T11:53:15;101532.66;;;10.25;100.00
71966;BME280;59836;52.132;5.442;2024-02-14T11:55:48;101521.81;;;10.25;100.00
71966;BME280;59836;52.132;5.442;2024-02-14T11:58:16;101522.38;;;10.27;100.00
71966;BME280;59836;52.132;5.442;2024-02-14T12:00:44;101521.31;;;10.28;100.00
71966;BME280;59836;52.132;5.442;2024-02-14T12:03:19;101528.38;;;10.29;100.00
71966;BME280;59836;52.132;5.442;2024-02-14T12:05:47;101518.38;;;10.30;100.00
71966;BME280;59836;52.132;5.442;2024-02-14T12:08:14;101519.75;;;10.32;100.00
71966;BME280;59836;52.132;5.442;2024-02-14T12:10:46;101514.88;;;10.34;100.00
71966;BME280;59836;52.132;5.442;2024-02-14T12:13:15;101512.75;;;10.37;100.00
71966;BME280;59836;52.132;5.442;2024-02-14T12:15:45;101501.09;;;10.36;100.00
71966;BME280;59836;52.132;5.442;2024-02-14T12:18:12;101508.97;;;10.38;100.00
71966;BME280;59836;52.132;5.442;2024-02-14T12:20:43;101512.50;;;10.38;100.00
71966;BME280;59836;52.132;5.442;2024-02-14T12:23:15;101509.56;;;10.40;100.00
71966;BME280;59836;52.132;5.442;2024-02-14T12:25:47;101515.56;;;10.42;100.00
71966;BME280;59836;52.132;5.442;2024-02-14T12:28:18;101513.13;;;10.40;100.00
71966;BME280;59836;52.132;5.442;2024-02-14T12:30:50;101520.19;;;10.41;100.00
71966;BME280;59836;52.132;5.442;2024-02-14T12:33:23;101519.34;;;10.41;100.00
71966;BME280;59836;52.132;5.442;2024-02-14T12:35:51;101515.56;;;10.42;100.00
71966;BME280;59836;52.132;5.442;2024-02-14T12:38:20;101515.56;;;10.42;100.00
71966;BME280;59836;52.132;5.442;2024-02-14T12:40:47;101517.19;;;10.43;100.00
71966;BME280;59836;52.132;5.442;2024-02-14T12:43:14;101506.34;;;10.43;100.00
71966;BME280;59836;52.132;5.442;2024-02-14T12:45:42;101506.13;;;10.44;100.00
71966;BME280;59836;52.132;5.442;2024-02-14T12:48:11;101509.91;;;10.43;100.00
71966;BME280;59836;52.132;5.442;2024-02-14T12:50:41;101509.63;;;10.45;100.00